CheckWX is a tool to help pilots better visualize weather data.  It is not intended as a substitute for an official pre-flight weather briefing.

16:45:39 UTC

KROG METAR
Rogers Executive - Carter Field Airport
Rogers, Arkansas, USA
Current

48 mins ago

KROG 051558Z 00000KT 7SM OVC003 09/09 A3013 RMK AO2 RAB08E41 SLP204 P0000 T00940094
Observed
Apr-5 @ 15:58 UTC
Visibility
Flight Rules
LIFR
Cloud Levels
  • Overcast at 300' AGL
Temperature
C / 48°F
Dewpoint
C / 48°F
Humidity
100%
Altimeter
30.13" Hg
Pressure
1020.32 hPa
Current Rain
0.01"
Previous

1 hour ago

KROG 051539Z 00000KT 3SM -RA BR OVC003 09/09 A3013 RMK AO2 RAB08 P0000
Observed
Apr-5 @ 15:39 UTC
Visibility
Flight Rules
LIFR
Conditions
Light Rain, Mist
Cloud Levels
  • Overcast at 300' AGL
Temperature
C / 48°F
Dewpoint
C / 48°F
Humidity
100%
Altimeter
30.13" Hg
Pressure
1020.32 hPa
Current Rain
0.01"
Previous

1 hour ago

KROG 051519Z 00000KT 1 1/4SM -RA BR OVC003 09/09 A3012 RMK AO2 RAB08 P0000
Observed
Apr-5 @ 15:19 UTC
Visibility
Flight Rules
LIFR
Conditions
Light Rain, Mist
Cloud Levels
  • Overcast at 300' AGL
Temperature
C / 48°F
Dewpoint
C / 48°F
Humidity
100%
Altimeter
30.12" Hg
Pressure
1020.02 hPa
Current Rain
0.01"